sensor_id;sensor_type;location;lat;lon;timestamp;temperature;humidity
1592;DHT22;789;51.612;7.510;2022-07-23T00:00:05;19.60;1.00
1592;DHT22;789;51.612;7.510;2022-07-23T00:02:32;19.60;1.00
1592;DHT22;789;51.612;7.510;2022-07-23T00:04:59;19.60;1.00
1592;DHT22;789;51.612;7.510;2022-07-23T00:07:26;19.60;1.00
1592;DHT22;789;51.612;7.510;2022-07-23T00:09:53;19.60;1.00
1592;DHT22;789;51.612;7.510;2022-07-23T00:12:21;19.60;1.00
1592;DHT22;789;51.612;7.510;2022-07-23T00:14:48;19.50;1.00
1592;DHT22;789;51.612;7.510;2022-07-23T00:17:15;19.40;1.00
1592;DHT22;789;51.612;7.510;2022-07-23T00:19:42;19.40;1.00
1592;DHT22;789;51.612;7.510;2022-07-23T00:22:09;19.30;1.00
1592;DHT22;789;51.612;7.510;2022-07-23T00:24:35;19.20;1.00
1592;DHT22;789;51.612;7.510;2022-07-23T00:27:02;19.10;1.00
1592;DHT22;789;51.612;7.510;2022-07-23T00:29:30;19.10;1.00
1592;DHT22;789;51.612;7.510;2022-07-23T00:31:57;19.10;1.00
1592;DHT22;789;51.612;7.510;2022-07-23T00:34:24;19.10;1.00
1592;DHT22;789;51.612;7.510;2022-07-23T00:36:51;19.00;1.00
1592;DHT22;789;51.612;7.510;2022-07-23T00:39:19;19.00;1.00
1592;DHT22;789;51.612;7.510;2022-07-23T00:41:46;19.00;1.00
1592;DHT22;789;51.612;7.510;2022-07-23T00:44:21;19.00;1.00
1592;DHT22;789;51.612;7.510;2022-07-23T00:46:51;19.00;1.00
1592;DHT22;789;51.612;7.510;2022-07-23T00:49:19;19.00;1.00
1592;DHT22;789;51.612;7.510;2022-07-23T00:51:48;18.90;1.00
1592;DHT22;789;51.612;7.510;2022-07-23T00:54:15;18.90;1.00
1592;DHT22;789;51.612;7.510;2022-07-23T00:56:43;19.00;1.00
1592;DHT22;789;51.612;7.510;2022-07-23T00:59:10;18.90;1.00
1592;DHT22;789;51.612;7.510;2022-07-23T01:01:38;19.00;1.00
1592;DHT22;789;51.612;7.510;2022-07-23T01:04:06;19.00;1.00
1592;DHT22;789;51.612;7.510;2022-07-23T01:06:35;19.00;1.00
1592;DHT22;789;51.612;7.510;2022-07-23T01:09:04;19.00;1.00
1592;DHT22;789;51.612;7.510;2022-07-23T01:11:33;19.00;1.00
1592;DHT22;789;51.612;7.510;2022-07-23T01:14:08;19.00;1.00
1592;DHT22;789;51.612;7.510;2022-07-23T01:16:34;18.90;1.00
1592;DHT22;789;51.612;7.510;2022-07-23T01:19:01;18.90;1.00
1592;DHT22;789;51.612;7.510;2022-07-23T01:21:32;18.80;1.00
1592;DHT22;789;51.612;7.510;2022-07-23T01:24:00;18.70;1.00
1592;DHT22;789;51.612;7.510;2022-07-23T01:26:27;18.70;1.00
1592;DHT22;789;51.612;7.510;2022-07-23T01:28:54;18.70;1.00
1592;DHT22;789;51.612;7.510;2022-07-23T01:31:21;18.70;1.00
1592;DHT22;789;51.612;7.510;2022-07-23T01:33:48;18.70;1.00
1592;DHT22;789;51.612;7.510;2022-07-23T01:36:15;18.70;1.00
1592;DHT22;789;51.612;7.510;2022-07-23T01:38:41;18.70;1.00
1592;DHT22;789;51.612;7.510;2022-07-23T01:41:10;18.80;1.00
1592;DHT22;789;51.612;7.510;2022-07-23T01:43:36;18.80;1.00
1592;DHT22;789;51.612;7.510;2022-07-23T01:46:04;18.80;1.00
1592;DHT22;789;51.612;7.510;2022-07-23T01:48:30;18.80;1.00
1592;DHT22;789;51.612;7.510;2022-07-23T01:50:57;18.90;1.00
1592;DHT22;789;51.612;7.510;2022-07-23T01:53:24;18.80;1.00
1592;DHT22;789;51.612;7.510;2022-07-23T01:55:51;18.90;1.00
1592;DHT22;789;51.612;7.510;2022-07-23T01:58:19;18.90;1.00
1592;DHT22;789;51.612;7.510;2022-07-23T02:00:46;18.80;1.00
1592;DHT22;789;51.612;7.510;2022-07-23T02:03:12;18.80;1.00
1592;DHT22;789;51.612;7.510;2022-07-23T02:05:39;18.80;1.00
1592;DHT22;789;51.612;7.510;2022-07-23T02:08:06;18.80;1.00
1592;DHT22;789;51.612;7.510;2022-07-23T02:10:33;18.80;1.00
1592;DHT22;789;51.612;7.510;2022-07-23T02:13:00;18.80;1.00
1592;DHT22;789;51.612;7.510;2022-07-23T02:15:28;18.90;1.00
1592;DHT22;789;51.612;7.510;2022-07-23T02:17:55;18.90;1.00
1592;DHT22;789;51.612;7.510;2022-07-23T02:20:22;18.90;1.00
1592;DHT22;789;51.612;7.510;2022-07-23T02:22:49;18.90;1.00
1592;DHT22;789;51.612;7.510;2022-07-23T02:25:16;18.90;1.00
1592;DHT22;789;51.612;7.510;2022-07-23T02:27:42;19.00;1.00
1592;DHT22;789;51.612;7.510;2022-07-23T02:30:10;18.90;1.00
1592;DHT22;789;51.612;7.510;2022-07-23T02:32:39;18.90;1.00
1592;DHT22;789;51.612;7.510;2022-07-23T02:35:07;18.90;1.00
1592;DHT22;789;51.612;7.510;2022-07-23T02:37:33;18.90;1.00
1592;DHT22;789;51.612;7.510;2022-07-23T02:40:00;18.90;1.00
1592;DHT22;789;51.612;7.510;2022-07-23T02:42:27;18.80;1.00
1592;DHT22;789;51.612;7.510;2022-07-23T02:44:54;18.70;1.00
1592;DHT22;789;51.612;7.510;2022-07-23T02:47:20;18.60;1.00
1592;DHT22;789;51.612;7.510;2022-07-23T02:49:49;18.60;1.00
1592;DHT22;789;51.612;7.510;2022-07-23T02:52:15;18.60;1.00
1592;DHT22;789;51.612;7.510;2022-07-23T02:54:42;18.60;1.00
1592;DHT22;789;51.612;7.510;2022-07-23T02:57:09;18.50;1.00
1592;DHT22;789;51.612;7.510;2022-07-23T02:59:35;18.50;1.00
1592;DHT22;789;51.612;7.510;2022-07-23T03:02:02;18.50;1.00
1592;DHT22;789;51.612;7.510;2022-07-23T03:04:29;18.40;1.00
1592;DHT22;789;51.612;7.510;2022-07-23T03:06:57;18.50;1.00
1592;DHT22;789;51.612;7.510;2022-07-23T03:09:24;18.40;1.00
1592;DHT22;789;51.612;7.510;2022-07-23T03:11:51;18.40;1.00
1592;DHT22;789;51.612;7.510;2022-07-23T03:14:17;18.50;1.00
1592;DHT22;789;51.612;7.510;2022-07-23T03:16:44;18.40;1.00
1592;DHT22;789;51.612;7.510;2022-07-23T03:19:11;18.40;1.00
1592;DHT22;789;51.612;7.510;2022-07-23T03:21:38;18.30;1.00
1592;DHT22;789;51.612;7.510;2022-07-23T03:24:08;18.30;1.00
1592;DHT22;789;51.612;7.510;2022-07-23T03:26:35;18.30;1.00
1592;DHT22;789;51.612;7.510;2022-07-23T03:29:02;18.20;1.00
1592;DHT22;789;51.612;7.510;2022-07-23T03:31:30;18.20;1.00
1592;DHT22;789;51.612;7.510;2022-07-23T03:33:57;18.20;1.00
1592;DHT22;789;51.612;7.510;2022-07-23T03:36:24;18.10;1.00
1592;DHT22;789;51.612;7.510;2022-07-23T03:38:51;18.10;1.00
1592;DHT22;789;51.612;7.510;2022-07-23T03:41:20;18.10;1.00
1592;DHT22;789;51.612;7.510;2022-07-23T03:43:46;18.10;1.00
1592;DHT22;789;51.612;7.510;2022-07-23T03:46:13;18.10;1.00
1592;DHT22;789;51.612;7.510;2022-07-23T03:48:40;18.00;1.00
1592;DHT22;789;51.612;7.510;2022-07-23T03:51:07;18.00;1.00
1592;DHT22;789;51.612;7.510;2022-07-23T03:53:34;18.00;1.00
1592;DHT22;789;51.612;7.510;2022-07-23T03:56:01;18.00;1.00
1592;DHT22;789;51.612;7.510;2022-07-23T03:58:29;18.00;1.00
1592;DHT22;789;51.612;7.510;2022-07-23T04:00:55;18.00;1.00
1592;DHT22;789;51.612;7.510;2022-07-23T04:03:22;18.00;1.00
1592;DHT22;789;51.612;7.510;2022-07-23T04:05:49;18.00;1.00
1592;DHT22;789;51.612;7.510;2022-07-23T04:08:16;18.00;1.00
1592;DHT22;789;51.612;7.510;2022-07-23T04:10:43;18.00;1.00
1592;DHT22;789;51.612;7.510;2022-07-23T04:13:09;18.00;1.00
1592;DHT22;789;51.612;7.510;2022-07-23T04:15:38;17.90;1.00
1592;DHT22;789;51.612;7.510;2022-07-23T04:18:05;17.90;1.00
1592;DHT22;789;51.612;7.510;2022-07-23T04:20:33;17.90;1.00
1592;DHT22;789;51.612;7.510;2022-07-23T04:23:00;17.90;1.00
1592;DHT22;789;51.612;7.510;2022-07-23T04:25:26;17.90;1.00
1592;DHT22;789;51.612;7.510;2022-07-23T04:27:53;17.90;1.00
1592;DHT22;789;51.612;7.510;2022-07-23T04:30:20;17.90;1.00
1592;DHT22;789;51.612;7.510;2022-07-23T04:32:48;18.00;1.00
1592;DHT22;789;51.612;7.510;2022-07-23T04:35:15;18.00;1.00
1592;DHT22;789;51.612;7.510;2022-07-23T04:37:42;18.00;1.00
1592;DHT22;789;51.612;7.510;2022-07-23T04:40:10;18.10;1.00
1592;DHT22;789;51.612;7.510;2022-07-23T04:42:36;18.10;1.00
1592;DHT22;789;51.612;7.510;2022-07-23T04:45:04;18.10;1.00
1592;DHT22;789;51.612;7.510;2022-07-23T04:47:31;18.20;1.00
1592;DHT22;789;51.612;7.510;2022-07-23T04:49:59;18.20;1.00
1592;DHT22;789;51.612;7.510;2022-07-23T04:52:26;18.20;1.00
1592;DHT22;789;51.612;7.510;2022-07-23T04:54:52;18.20;1.00
1592;DHT22;789;51.612;7.510;2022-07-23T04:57:19;18.20;1.00
1592;DHT22;789;51.612;7.510;2022-07-23T04:59:46;18.30;1.00
1592;DHT22;789;51.612;7.510;2022-07-23T05:02:12;18.40;1.00
1592;DHT22;789;51.612;7.510;2022-07-23T05:04:39;18.40;1.00
1592;DHT22;789;51.612;7.510;2022-07-23T05:07:07;18.60;1.00
1592;DHT22;789;51.612;7.510;2022-07-23T05:09:34;18.70;1.00
1592;DHT22;789;51.612;7.510;2022-07-23T05:12:01;18.80;1.00
1592;DHT22;789;51.612;7.510;2022-07-23T05:14:28;18.90;1.00
1592;DHT22;789;51.612;7.510;2022-07-23T05:16:54;19.10;1.00
1592;DHT22;789;51.612;7.510;2022-07-23T05:19:21;19.20;1.00
1592;DHT22;789;51.612;7.510;2022-07-23T05:21:48;19.30;1.00
1592;DHT22;789;51.612;7.510;2022-07-23T05:24:16;19.30;1.00
1592;DHT22;789;51.612;7.510;2022-07-23T05:26:43;19.40;1.00
1592;DHT22;789;51.612;7.510;2022-07-23T05:29:09;19.60;1.00
1592;DHT22;789;51.612;7.510;2022-07-23T05:31:36;19.70;1.00
1592;DHT22;789;51.612;7.510;2022-07-23T05:34:03;19.80;1.00
1592;DHT22;789;51.612;7.510;2022-07-23T05:36:31;19.90;1.00
1592;DHT22;789;51.612;7.510;2022-07-23T05:38:58;20.00;1.00
1592;DHT22;789;51.612;7.510;2022-07-23T05:41:26;20.00;1.00
1592;DHT22;789;51.612;7.510;2022-07-23T05:43:53;20.10;1.00
1592;DHT22;789;51.612;7.510;2022-07-23T05:46:20;20.20;1.00
1592;DHT22;789;51.612;7.510;2022-07-23T05:48:47;20.30;1.00
1592;DHT22;789;51.612;7.510;2022-07-23T05:51:19;20.50;1.00
1592;DHT22;789;51.612;7.510;2022-07-23T05:53:46;20.60;1.00
1592;DHT22;789;51.612;7.510;2022-07-23T05:56:13;20.70;1.00
1592;DHT22;789;51.612;7.510;2022-07-23T05:58:41;20.90;1.00
1592;DHT22;789;51.612;7.510;2022-07-23T06:01:08;21.00;1.00
1592;DHT22;789;51.612;7.510;2022-07-23T06:03:35;21.10;1.00
1592;DHT22;789;51.612;7.510;2022-07-23T06:06:02;21.20;1.00
1592;DHT22;789;51.612;7.510;2022-07-23T06:08:28;21.30;1.00
1592;DHT22;789;51.612;7.510;2022-07-23T06:10:55;21.40;1.00
1592;DHT22;789;51.612;7.510;2022-07-23T06:13:22;21.60;1.00
1592;DHT22;789;51.612;7.510;2022-07-23T06:15:50;21.70;1.00
1592;DHT22;789;51.612;7.510;2022-07-23T06:18:17;21.80;1.00
1592;DHT22;789;51.612;7.510;2022-07-23T06:20:44;21.90;1.00
1592;DHT22;789;51.612;7.510;2022-07-23T06:23:10;22.10;1.00
1592;DHT22;789;51.612;7.510;2022-07-23T06:25:38;22.20;1.00
1592;DHT22;789;51.612;7.510;2022-07-23T06:28:05;22.40;1.00
1592;DHT22;789;51.612;7.510;2022-07-23T06:30:31;22.50;1.00
1592;DHT22;789;51.612;7.510;2022-07-23T06:33:00;22.70;1.00
1592;DHT22;789;51.612;7.510;2022-07-23T06:35:26;22.90;1.00
1592;DHT22;789;51.612;7.510;2022-07-23T06:37:53;23.00;1.00
1592;DHT22;789;51.612;7.510;2022-07-23T06:40:20;23.10;1.00
1592;DHT22;789;51.612;7.510;2022-07-23T06:42:47;23.10;1.00
1592;DHT22;789;51.612;7.510;2022-07-23T06:45:14;23.20;1.00
1592;DHT22;789;51.612;7.510;2022-07-23T06:47:40;23.20;1.00
1592;DHT22;789;51.612;7.510;2022-07-23T06:50:09;23.30;1.00
1592;DHT22;789;51.612;7.510;2022-07-23T06:52:36;23.40;1.00
1592;DHT22;789;51.612;7.510;2022-07-23T06:55:04;23.60;1.00
1592;DHT22;789;51.612;7.510;2022-07-23T06:57:31;23.60;1.00
1592;DHT22;789;51.612;7.510;2022-07-23T06:59:57;23.80;1.00
1592;DHT22;789;51.612;7.510;2022-07-23T07:02:24;23.90;1.00
1592;DHT22;789;51.612;7.510;2022-07-23T07:04:51;24.10;1.00
1592;DHT22;789;51.612;7.510;2022-07-23T07:07:19;24.20;1.00
1592;DHT22;789;51.612;7.510;2022-07-23T07:09:46;24.40;1.00
1592;DHT22;789;51.612;7.510;2022-07-23T07:12:13;24.70;1.00
1592;DHT22;789;51.612;7.510;2022-07-23T07:14:40;25.00;1.00
1592;DHT22;789;51.612;7.510;2022-07-23T07:17:06;25.20;1.00
1592;DHT22;789;51.612;7.510;2022-07-23T07:19:33;25.40;1.00
1592;DHT22;789;51.612;7.510;2022-07-23T07:22:00;25.60;1.00
1592;DHT22;789;51.612;7.510;2022-07-23T07:24:28;25.60;1.00
1592;DHT22;789;51.612;7.510;2022-07-23T07:26:55;25.40;1.00
1592;DHT22;789;51.612;7.510;2022-07-23T07:29:21;25.30;1.00
1592;DHT22;789;51.612;7.510;2022-07-23T07:31:48;25.30;1.00
1592;DHT22;789;51.612;7.510;2022-07-23T07:34:15;25.20;1.00
1592;DHT22;789;51.612;7.510;2022-07-23T07:36:42;25.20;1.00
1592;DHT22;789;51.612;7.510;2022-07-23T07:39:09;25.40;1.00
1592;DHT22;789;51.612;7.510;2022-07-23T07:41:37;25.50;1.00
1592;DHT22;789;51.612;7.510;2022-07-23T07:44:04;25.70;1.00
1592;DHT22;789;51.612;7.510;2022-07-23T07:46:31;26.00;1.00
1592;DHT22;789;51.612;7.510;2022-07-23T07:48:58;26.30;1.00
1592;DHT22;789;51.612;7.510;2022-07-23T07:51:25;26.50;1.00
1592;DHT22;789;51.612;7.510;2022-07-23T07:53:52;26.60;1.00
1592;DHT22;789;51.612;7.510;2022-07-23T07:56:19;26.90;1.00
1592;DHT22;789;51.612;7.510;2022-07-23T07:58:47;27.50;1.00
1592;DHT22;789;51.612;7.510;2022-07-23T08:01:14;28.10;1.00
1592;DHT22;789;51.612;7.510;2022-07-23T08:03:41;28.80;1.00
1592;DHT22;789;51.612;7.510;2022-07-23T08:06:07;29.00;1.00
1592;DHT22;789;51.612;7.510;2022-07-23T08:08:34;28.80;1.00
1592;DHT22;789;51.612;7.510;2022-07-23T08:11:01;28.50;1.00
1592;DHT22;789;51.612;7.510;2022-07-23T08:13:28;28.20;1.00
1592;DHT22;789;51.612;7.510;2022-07-23T08:15:56;28.40;1.00
1592;DHT22;789;51.612;7.510;2022-07-23T08:18:22;29.20;1.00
1592;DHT22;789;51.612;7.510;2022-07-23T08:20:49;30.50;1.00
1592;DHT22;789;51.612;7.510;2022-07-23T08:23:16;32.00;1.00
1592;DHT22;789;51.612;7.510;2022-07-23T08:25:45;32.60;1.00
1592;DHT22;789;51.612;7.510;2022-07-23T08:28:13;32.60;1.00
1592;DHT22;789;51.612;7.510;2022-07-23T08:30:42;32.00;1.00
1592;DHT22;789;51.612;7.510;2022-07-23T08:33:13;31.80;1.00
1592;DHT22;789;51.612;7.510;2022-07-23T08:35:41;31.90;1.00
1592;DHT22;789;51.612;7.510;2022-07-23T08:38:10;32.60;1.00
1592;DHT22;789;51.612;7.510;2022-07-23T08:40:40;33.30;1.00
1592;DHT22;789;51.612;7.510;2022-07-23T08:43:10;33.90;1.00
1592;DHT22;789;51.612;7.510;2022-07-23T08:45:39;33.80;1.00
1592;DHT22;789;51.612;7.510;2022-07-23T08:48:10;33.10;1.00
1592;DHT22;789;51.612;7.510;2022-07-23T08:50:37;33.00;1.00
1592;DHT22;789;51.612;7.510;2022-07-23T08:53:07;33.40;1.00
1592;DHT22;789;51.612;7.510;2022-07-23T08:55:34;34.00;1.00
1592;DHT22;789;51.612;7.510;2022-07-23T08:58:01;34.80;1.00
1592;DHT22;789;51.612;7.510;2022-07-23T09:00:28;35.20;1.00
1592;DHT22;789;51.612;7.510;2022-07-23T09:02:55;34.90;1.00
1592;DHT22;789;51.612;7.510;2022-07-23T09:05:24;34.60;1.00
1592;DHT22;789;51.612;7.510;2022-07-23T09:08:08;34.40;1.00
1592;DHT22;789;51.612;7.510;2022-07-23T09:10:47;35.00;1.00
1592;DHT22;789;51.612;7.510;2022-07-23T09:13:35;36.20;1.00
1592;DHT22;789;51.612;7.510;2022-07-23T09:16:05;37.40;1.00
1592;DHT22;789;51.612;7.510;2022-07-23T09:18:34;38.60;1.00
1592;DHT22;789;51.612;7.510;2022-07-23T09:21:22;38.90;1.00
1592;DHT22;789;51.612;7.510;2022-07-23T09:23:55;37.60;1.00
1592;DHT22;789;51.612;7.510;2022-07-23T09:26:33;35.90;1.00
1592;DHT22;789;51.612;7.510;2022-07-23T09:29:03;34.50;1.00
1592;DHT22;789;51.612;7.510;2022-07-23T09:31:41;33.90;1.00
1592;DHT22;789;51.612;7.510;2022-07-23T09:34:11;34.80;1.00
1592;DHT22;789;51.612;7.510;2022-07-23T09:36:39;36.10;1.00
1592;DHT22;789;51.612;7.510;2022-07-23T09:39:07;37.60;1.00
1592;DHT22;789;51.612;7.510;2022-07-23T09:41:36;38.50;1.00
1592;DHT22;789;51.612;7.510;2022-07-23T09:44:21;38.80;1.00
1592;DHT22;789;51.612;7.510;2022-07-23T09:46:49;40.10;1.00
1592;DHT22;789;51.612;7.510;2022-07-23T09:49:19;40.70;1.00
1592;DHT22;789;51.612;7.510;2022-07-23T09:51:50;41.20;1.00
1592;DHT22;789;51.612;7.510;2022-07-23T09:54:29;40.90;1.00
1592;DHT22;789;51.612;7.510;2022-07-23T09:57:01;41.00;1.00
1592;DHT22;789;51.612;7.510;2022-07-23T09:59:30;41.10;1.00
1592;DHT22;789;51.612;7.510;2022-07-23T10:01:59;41.50;1.00
1592;DHT22;789;51.612;7.510;2022-07-23T10:04:28;41.00;1.00
1592;DHT22;789;51.612;7.510;2022-07-23T10:06:58;41.10;1.00
1592;DHT22;789;51.612;7.510;2022-07-23T10:09:27;41.40;1.00
1592;DHT22;789;51.612;7.510;2022-07-23T10:11:56;41.60;1.00
1592;DHT22;789;51.612;7.510;2022-07-23T10:14:27;42.10;1.00
1592;DHT22;789;51.612;7.510;2022-07-23T10:16:57;42.30;1.00
1592;DHT22;789;51.612;7.510;2022-07-23T10:19:24;42.00;1.00
1592;DHT22;789;51.612;7.510;2022-07-23T10:21:56;42.10;1.00
1592;DHT22;789;51.612;7.510;2022-07-23T10:24:36;42.50;1.00
1592;DHT22;789;51.612;7.510;2022-07-23T10:27:29;42.60;1.00
1592;DHT22;789;51.612;7.510;2022-07-23T10:30:02;43.10;1.00
1592;DHT22;789;51.612;7.510;2022-07-23T10:32:45;43.50;1.00
1592;DHT22;789;51.612;7.510;2022-07-23T10:35:23;43.10;1.00
1592;DHT22;789;51.612;7.510;2022-07-23T10:37:56;43.00;1.00
1592;DHT22;789;51.612;7.510;2022-07-23T10:40:23;42.90;1.00
1592;DHT22;789;51.612;7.510;2022-07-23T10:42:52;43.50;1.00
1592;DHT22;789;51.612;7.510;2022-07-23T10:45:27;43.80;1.00
1592;DHT22;789;51.612;7.510;2022-07-23T10:47:55;43.70;1.00
1592;DHT22;789;51.612;7.510;2022-07-23T10:50:25;43.50;1.00
1592;DHT22;789;51.612;7.510;2022-07-23T10:53:15;43.70;1.00
1592;DHT22;789;51.612;7.510;2022-07-23T10:55:46;43.60;1.00
1592;DHT22;789;51.612;7.510;2022-07-23T11:01:00;43.50;1.00
1592;DHT22;789;51.612;7.510;2022-07-23T11:03:33;43.70;1.00
1592;DHT22;789;51.612;7.510;2022-07-23T11:06:02;43.80;1.00
1592;DHT22;789;51.612;7.510;2022-07-23T11:08:31;44.10;1.00
1592;DHT22;789;51.612;7.510;2022-07-23T11:11:10;44.40;1.00
1592;DHT22;789;51.612;7.510;2022-07-23T11:13:47;44.70;1.00
1592;DHT22;789;51.612;7.510;2022-07-23T11:16:25;44.70;1.00
1592;DHT22;789;51.612;7.510;2022-07-23T11:18:57;44.50;1.00
1592;DHT22;789;51.612;7.510;2022-07-23T11:21:47;44.60;1.00
1592;DHT22;789;51.612;7.510;2022-07-23T11:24:17;44.70;1.00
1592;DHT22;789;51.612;7.510;2022-07-23T11:26:58;44.40;1.00
1592;DHT22;789;51.612;7.510;2022-07-23T11:29:47;43.50;1.00
1592;DHT22;789;51.612;7.510;2022-07-23T11:32:32;43.20;1.00
1592;DHT22;789;51.612;7.510;2022-07-23T11:35:01;43.50;1.00
1592;DHT22;789;51.612;7.510;2022-07-23T11:37:37;42.50;1.00
1592;DHT22;789;51.612;7.510;2022-07-23T11:40:09;42.30;1.00
1592;DHT22;789;51.612;7.510;2022-07-23T11:42:37;42.10;1.00
1592;DHT22;789;51.612;7.510;2022-07-23T11:45:06;41.50;1.00
1592;DHT22;789;51.612;7.510;2022-07-23T11:47:33;40.60;1.00
1592;DHT22;789;51.612;7.510;2022-07-23T11:50:03;39.30;1.00
1592;DHT22;789;51.612;7.510;2022-07-23T11:52:30;38.10;1.00
1592;DHT22;789;51.612;7.510;2022-07-23T11:54:59;37.10;1.00
1592;DHT22;789;51.612;7.510;2022-07-23T11:57:29;36.30;1.00
1592;DHT22;789;51.612;7.510;2022-07-23T11:59:58;35.30;1.00
1592;DHT22;789;51.612;7.510;2022-07-23T12:02:27;34.30;1.00
1592;DHT22;789;51.612;7.510;2022-07-23T12:04:53;33.40;1.00
1592;DHT22;789;51.612;7.510;2022-07-23T12:07:39;32.60;1.00
1592;DHT22;789;51.612;7.510;2022-07-23T12:10:11;31.90;1.00
1592;DHT22;789;51.612;7.510;2022-07-23T12:12:42;31.30;1.00
1592;DHT22;789;51.612;7.510;2022-07-23T12:15:09;30.90;1.00
1592;DHT22;789;51.612;7.510;2022-07-23T12:17:38;30.50;1.00
1592;DHT22;789;51.612;7.510;2022-07-23T12:20:12;30.10;1.00
1592;DHT22;789;51.612;7.510;2022-07-23T12:22:41;29.70;1.00
1592;DHT22;789;51.612;7.510;2022-07-23T12:25:10;29.40;1.00
1592;DHT22;789;51.612;7.510;2022-07-23T12:27:39;29.30;1.00
1592;DHT22;789;51.612;7.510;2022-07-23T12:30:19;29.20;1.00
1592;DHT22;789;51.612;7.510;2022-07-23T12:32:49;29.10;1.00
1592;DHT22;789;51.612;7.510;2022-07-23T12:35:16;29.10;1.00
1592;DHT22;789;51.612;7.510;2022-07-23T12:37:46;29.10;1.00
1592;DHT22;789;51.612;7.510;2022-07-23T12:40:27;29.00;1.00
1592;DHT22;789;51.612;7.510;2022-07-23T12:42:58;28.80;1.00
1592;DHT22;789;51.612;7.510;2022-07-23T12:45:25;28.80;1.00
1592;DHT22;789;51.612;7.510;2022-07-23T12:48:01;28.80;1.00
1592;DHT22;789;51.612;7.510;2022-07-23T12:50:34;28.80;1.00
1592;DHT22;789;51.612;7.510;2022-07-23T12:53:07;28.80;1.00
1592;DHT22;789;51.612;7.510;2022-07-23T12:55:35;28.70;1.00
1592;DHT22;789;51.612;7.510;2022-07-23T12:58:12;28.70;1.00
1592;DHT22;789;51.612;7.510;2022-07-23T13:00:53;28.40;1.00
1592;DHT22;789;51.612;7.510;2022-07-23T13:03:22;28.20;1.00
1592;DHT22;789;51.612;7.510;2022-07-23T13:05:49;28.10;1.00
1592;DHT22;789;51.612;7.510;2022-07-23T13:08:16;28.10;1.00
1592;DHT22;789;51.612;7.510;2022-07-23T13:10:42;28.00;1.00
1592;DHT22;789;51.612;7.510;2022-07-23T13:13:14;28.00;1.00
1592;DHT22;789;51.612;7.510;2022-07-23T13:15:41;27.90;1.00
1592;DHT22;789;51.612;7.510;2022-07-23T13:18:08;28.00;1.00
1592;DHT22;789;51.612;7.510;2022-07-23T13:20:34;27.90;1.00
1592;DHT22;789;51.612;7.510;2022-07-23T13:23:02;27.90;1.00
1592;DHT22;789;51.612;7.510;2022-07-23T13:25:28;27.80;1.00
1592;DHT22;789;51.612;7.510;2022-07-23T13:27:55;27.80;1.00
1592;DHT22;789;51.612;7.510;2022-07-23T13:30:23;27.70;1.00
1592;DHT22;789;51.612;7.510;2022-07-23T13:32:50;27.90;1.00
1592;DHT22;789;51.612;7.510;2022-07-23T13:35:17;27.80;1.00
1592;DHT22;789;51.612;7.510;2022-07-23T13:37:44;27.70;1.00
1592;DHT22;789;51.612;7.510;2022-07-23T13:40:11;27.90;1.00
1592;DHT22;789;51.612;7.510;2022-07-23T13:42:38;27.80;1.00
1592;DHT22;789;51.612;7.510;2022-07-23T13:45:06;27.80;1.00
1592;DHT22;789;51.612;7.510;2022-07-23T13:47:34;27.70;1.00
1592;DHT22;789;51.612;7.510;2022-07-23T13:50:01;27.80;1.00
1592;DHT22;789;51.612;7.510;2022-07-23T13:52:27;27.80;1.00
1592;DHT22;789;51.612;7.510;2022-07-23T13:54:54;28.10;1.00
1592;DHT22;789;51.612;7.510;2022-07-23T13:57:21;28.00;1.00
1592;DHT22;789;51.612;7.510;2022-07-23T13:59:48;28.00;1.00
1592;DHT22;789;51.612;7.510;2022-07-23T14:02:16;28.00;1.00
1592;DHT22;789;51.612;7.510;2022-07-23T14:04:44;28.10;1.00
1592;DHT22;789;51.612;7.510;2022-07-23T14:07:11;28.30;1.00
1592;DHT22;789;51.612;7.510;2022-07-23T14:09:39;28.20;1.00
1592;DHT22;789;51.612;7.510;2022-07-23T14:12:06;28.30;1.00
1592;DHT22;789;51.612;7.510;2022-07-23T14:14:33;28.30;1.00
1592;DHT22;789;51.612;7.510;2022-07-23T14:17:00;28.30;1.00
1592;DHT22;789;51.612;7.510;2022-07-23T14:19:27;28.40;1.00
1592;DHT22;789;51.612;7.510;2022-07-23T14:21:56;28.30;1.00
1592;DHT22;789;51.612;7.510;2022-07-23T14:24:23;28.20;1.00
1592;DHT22;789;51.612;7.510;2022-07-23T14:26:49;28.20;1.00
1592;DHT22;789;51.612;7.510;2022-07-23T14:29:16;28.30;1.00
1592;DHT22;789;51.612;7.510;2022-07-23T14:31:43;28.30;1.00
1592;DHT22;789;51.612;7.510;2022-07-23T14:34:09;28.30;1.00
1592;DHT22;789;51.612;7.510;2022-07-23T14:36:37;28.30;1.00
1592;DHT22;789;51.612;7.510;2022-07-23T14:39:05;28.30;1.00
1592;DHT22;789;51.612;7.510;2022-07-23T14:41:34;28.30;1.00
1592;DHT22;789;51.612;7.510;2022-07-23T14:44:01;28.30;1.00
1592;DHT22;789;51.612;7.510;2022-07-23T14:46:28;28.30;1.00
1592;DHT22;789;51.612;7.510;2022-07-23T14:48:54;28.40;1.00
1592;DHT22;789;51.612;7.510;2022-07-23T14:51:21;28.40;1.00
1592;DHT22;789;51.612;7.510;2022-07-23T14:53:48;28.40;1.00
1592;DHT22;789;51.612;7.510;2022-07-23T14:56:17;28.50;1.00
1592;DHT22;789;51.612;7.510;2022-07-23T14:58:43;28.50;1.00
1592;DHT22;789;51.612;7.510;2022-07-23T15:01:10;28.50;1.00
1592;DHT22;789;51.612;7.510;2022-07-23T15:03:37;28.40;1.00
1592;DHT22;789;51.612;7.510;2022-07-23T15:06:04;28.40;1.00
1592;DHT22;789;51.612;7.510;2022-07-23T15:08:31;28.40;1.00
1592;DHT22;789;51.612;7.510;2022-07-23T15:10:58;28.40;1.00
1592;DHT22;789;51.612;7.510;2022-07-23T15:13:26;28.40;1.00
1592;DHT22;789;51.612;7.510;2022-07-23T15:15:53;28.30;1.00
1592;DHT22;789;51.612;7.510;2022-07-23T15:18:20;28.10;1.00
1592;DHT22;789;51.612;7.510;2022-07-23T15:20:47;28.20;1.00
1592;DHT22;789;51.612;7.510;2022-07-23T15:23:13;28.10;1.00
1592;DHT22;789;51.612;7.510;2022-07-23T15:25:40;28.20;1.00
1592;DHT22;789;51.612;7.510;2022-07-23T15:28:07;28.20;1.00
1592;DHT22;789;51.612;7.510;2022-07-23T15:30:35;28.10;1.00
1592;DHT22;789;51.612;7.510;2022-07-23T15:33:02;28.20;1.00
1592;DHT22;789;51.612;7.510;2022-07-23T15:35:30;28.30;1.00
1592;DHT22;789;51.612;7.510;2022-07-23T15:37:57;28.30;1.00
1592;DHT22;789;51.612;7.510;2022-07-23T15:40:24;28.20;1.00
1592;DHT22;789;51.612;7.510;2022-07-23T15:42:51;28.20;1.00
1592;DHT22;789;51.612;7.510;2022-07-23T15:45:18;28.30;1.00
1592;DHT22;789;51.612;7.510;2022-07-23T15:47:47;28.30;1.00
1592;DHT22;789;51.612;7.510;2022-07-23T15:50:14;28.40;1.00
1592;DHT22;789;51.612;7.510;2022-07-23T15:52:41;28.50;1.00
1592;DHT22;789;51.612;7.510;2022-07-23T15:55:08;28.40;1.00
1592;DHT22;789;51.612;7.510;2022-07-23T15:57:35;28.40;1.00
1592;DHT22;789;51.612;7.510;2022-07-23T16:00:03;28.40;1.00
1592;DHT22;789;51.612;7.510;2022-07-23T16:02:30;28.30;1.00
1592;DHT22;789;51.612;7.510;2022-07-23T16:04:58;28.20;1.00
1592;DHT22;789;51.612;7.510;2022-07-23T16:07:25;28.20;1.00
1592;DHT22;789;51.612;7.510;2022-07-23T16:09:53;28.10;1.00
1592;DHT22;789;51.612;7.510;2022-07-23T16:12:20;28.20;1.00
1592;DHT22;789;51.612;7.510;2022-07-23T16:14:46;28.20;1.00
1592;DHT22;789;51.612;7.510;2022-07-23T16:17:13;28.10;1.00
1592;DHT22;789;51.612;7.510;2022-07-23T16:19:40;28.10;1.00
1592;DHT22;789;51.612;7.510;2022-07-23T16:22:08;28.20;1.00
1592;DHT22;789;51.612;7.510;2022-07-23T16:24:36;28.00;1.00
1592;DHT22;789;51.612;7.510;2022-07-23T16:27:03;28.00;1.00
1592;DHT22;789;51.612;7.510;2022-07-23T16:29:30;28.00;1.00
1592;DHT22;789;51.612;7.510;2022-07-23T16:31:56;27.90;1.00
1592;DHT22;789;51.612;7.510;2022-07-23T16:34:23;27.90;1.00
1592;DHT22;789;51.612;7.510;2022-07-23T16:36:50;27.80;1.00
1592;DHT22;789;51.612;7.510;2022-07-23T16:39:18;27.70;1.00
1592;DHT22;789;51.612;7.510;2022-07-23T16:41:45;27.70;1.00
1592;DHT22;789;51.612;7.510;2022-07-23T16:44:12;27.60;1.00